sensor_id;sensor_type;location;lat;lon;timestamp;temperature;humidity
3564;DHT22;1796;52.388;13.096;2023-03-17T00:00:34;3.40;99.90
3564;DHT22;1796;52.388;13.096;2023-03-17T00:03:03;3.50;99.90
3564;DHT22;1796;52.388;13.096;2023-03-17T00:05:33;3.40;99.90
3564;DHT22;1796;52.388;13.096;2023-03-17T00:08:03;3.50;99.90
3564;DHT22;1796;52.388;13.096;2023-03-17T00:10:32;3.40;99.90
3564;DHT22;1796;52.388;13.096;2023-03-17T00:12:59;3.50;99.90
3564;DHT22;1796;52.388;13.096;2023-03-17T00:15:26;3.50;99.90
3564;DHT22;1796;52.388;13.096;2023-03-17T00:17:55;3.50;99.90
3564;DHT22;1796;52.388;13.096;2023-03-17T00:20:24;3.60;99.90
3564;DHT22;1796;52.388;13.096;2023-03-17T00:22:53;3.60;99.90
3564;DHT22;1796;52.388;13.096;2023-03-17T00:25:23;3.50;99.90
3564;DHT22;1796;52.388;13.096;2023-03-17T00:27:54;3.40;99.90
3564;DHT22;1796;52.388;13.096;2023-03-17T00:30:21;3.60;99.90
3564;DHT22;1796;52.388;13.096;2023-03-17T00:32:51;3.50;99.90
3564;DHT22;1796;52.388;13.096;2023-03-17T00:35:22;3.50;99.90
3564;DHT22;1796;52.388;13.096;2023-03-17T00:37:51;3.50;99.90
3564;DHT22;1796;52.388;13.096;2023-03-17T00:40:20;3.50;99.90
3564;DHT22;1796;52.388;13.096;2023-03-17T00:42:49;3.40;99.90
3564;DHT22;1796;52.388;13.096;2023-03-17T00:45:18;3.50;99.90
3564;DHT22;1796;52.388;13.096;2023-03-17T00:47:47;3.50;99.90
3564;DHT22;1796;52.388;13.096;2023-03-17T00:50:17;3.60;99.90
3564;DHT22;1796;52.388;13.096;2023-03-17T00:52:48;3.60;99.90
3564;DHT22;1796;52.388;13.096;2023-03-17T00:55:15;3.60;99.90
3564;DHT22;1796;52.388;13.096;2023-03-17T00:57:42;3.60;99.90
3564;DHT22;1796;52.388;13.096;2023-03-17T01:00:23;3.70;99.90
3564;DHT22;1796;52.388;13.096;2023-03-17T01:02:52;3.60;99.90
3564;DHT22;1796;52.388;13.096;2023-03-17T01:05:20;3.60;99.90
3564;DHT22;1796;52.388;13.096;2023-03-17T01:07:50;3.60;99.90
3564;DHT22;1796;52.388;13.096;2023-03-17T01:10:21;3.50;99.90
3564;DHT22;1796;52.388;13.096;2023-03-17T01:12:49;3.50;99.90
3564;DHT22;1796;52.388;13.096;2023-03-17T01:15:17;3.50;99.90
3564;DHT22;1796;52.388;13.096;2023-03-17T01:17:48;3.50;99.90
3564;DHT22;1796;52.388;13.096;2023-03-17T01:20:19;3.50;99.90
3564;DHT22;1796;52.388;13.096;2023-03-17T01:22:46;3.50;99.90
3564;DHT22;1796;52.388;13.096;2023-03-17T01:25:14;3.50;99.90
3564;DHT22;1796;52.388;13.096;2023-03-17T01:27:42;3.50;99.90
3564;DHT22;1796;52.388;13.096;2023-03-17T01:30:21;3.50;99.90
3564;DHT22;1796;52.388;13.096;2023-03-17T01:32:49;3.40;99.90
3564;DHT22;1796;52.388;13.096;2023-03-17T01:35:17;3.40;99.90
3564;DHT22;1796;52.388;13.096;2023-03-17T01:37:44;3.50;99.90
3564;DHT22;1796;52.388;13.096;2023-03-17T01:40:14;3.40;99.90
3564;DHT22;1796;52.388;13.096;2023-03-17T01:42:44;3.40;99.90
3564;DHT22;1796;52.388;13.096;2023-03-17T01:48:19;3.40;99.90
3564;DHT22;1796;52.388;13.096;2023-03-17T01:50:47;3.40;99.90
3564;DHT22;1796;52.388;13.096;2023-03-17T01:53:15;3.40;99.90
3564;DHT22;1796;52.388;13.096;2023-03-17T01:55:44;3.30;99.90
3564;DHT22;1796;52.388;13.096;2023-03-17T01:58:12;3.30;99.90
3564;DHT22;1796;52.388;13.096;2023-03-17T02:00:40;3.30;99.90
3564;DHT22;1796;52.388;13.096;2023-03-17T02:03:08;3.30;99.90
3564;DHT22;1796;52.388;13.096;2023-03-17T02:05:38;3.30;99.90
3564;DHT22;1796;52.388;13.096;2023-03-17T02:08:09;3.40;99.90
3564;DHT22;1796;52.388;13.096;2023-03-17T02:10:37;3.30;99.90
3564;DHT22;1796;52.388;13.096;2023-03-17T02:13:04;3.30;99.90
3564;DHT22;1796;52.388;13.096;2023-03-17T02:15:37;3.20;99.90
3564;DHT22;1796;52.388;13.096;2023-03-17T02:18:05;3.30;99.90
3564;DHT22;1796;52.388;13.096;2023-03-17T02:23:37;3.30;99.90
3564;DHT22;1796;52.388;13.096;2023-03-17T02:26:04;3.30;99.90
3564;DHT22;1796;52.388;13.096;2023-03-17T02:28:33;3.30;99.90
3564;DHT22;1796;52.388;13.096;2023-03-17T02:31:00;3.30;99.90
3564;DHT22;1796;52.388;13.096;2023-03-17T02:33:27;3.40;99.90
3564;DHT22;1796;52.388;13.096;2023-03-17T02:35:54;3.30;99.90
3564;DHT22;1796;52.388;13.096;2023-03-17T02:38:21;3.40;99.90
3564;DHT22;1796;52.388;13.096;2023-03-17T02:40:49;3.30;99.90
3564;DHT22;1796;52.388;13.096;2023-03-17T02:43:17;3.40;99.90
3564;DHT22;1796;52.388;13.096;2023-03-17T02:45:44;3.30;99.90
3564;DHT22;1796;52.388;13.096;2023-03-17T02:48:11;3.40;99.90
3564;DHT22;1796;52.388;13.096;2023-03-17T02:50:37;3.30;99.90
3564;DHT22;1796;52.388;13.096;2023-03-17T02:53:05;3.40;99.90
3564;DHT22;1796;52.388;13.096;2023-03-17T02:55:32;3.30;99.90
3564;DHT22;1796;52.388;13.096;2023-03-17T02:58:01;3.30;99.90
3564;DHT22;1796;52.388;13.096;2023-03-17T03:00:28;3.30;99.90
3564;DHT22;1796;52.388;13.096;2023-03-17T03:02:55;3.30;99.90
3564;DHT22;1796;52.388;13.096;2023-03-17T03:05:22;3.30;99.90
3564;DHT22;1796;52.388;13.096;2023-03-17T03:07:49;3.30;99.90
3564;DHT22;1796;52.388;13.096;2023-03-17T03:10:17;3.30;99.90
3564;DHT22;1796;52.388;13.096;2023-03-17T03:12:44;3.20;99.90
3564;DHT22;1796;52.388;13.096;2023-03-17T03:15:12;3.30;99.90
3564;DHT22;1796;52.388;13.096;2023-03-17T03:17:40;3.30;99.90
3564;DHT22;1796;52.388;13.096;2023-03-17T03:20:08;3.30;99.90
3564;DHT22;1796;52.388;13.096;2023-03-17T03:22:37;3.30;99.90
3564;DHT22;1796;52.388;13.096;2023-03-17T03:25:05;3.30;99.90
3564;DHT22;1796;52.388;13.096;2023-03-17T03:27:33;3.30;99.90
3564;DHT22;1796;52.388;13.096;2023-03-17T03:30:00;3.30;99.90
3564;DHT22;1796;52.388;13.096;2023-03-17T03:32:29;3.30;99.90
3564;DHT22;1796;52.388;13.096;2023-03-17T03:34:56;3.30;99.90
3564;DHT22;1796;52.388;13.096;2023-03-17T03:37:23;3.20;99.90
3564;DHT22;1796;52.388;13.096;2023-03-17T03:39:49;3.20;99.90
3564;DHT22;1796;52.388;13.096;2023-03-17T03:42:16;3.30;99.90
3564;DHT22;1796;52.388;13.096;2023-03-17T03:44:43;3.30;99.90
3564;DHT22;1796;52.388;13.096;2023-03-17T03:47:10;3.30;99.90
3564;DHT22;1796;52.388;13.096;2023-03-17T03:49:39;3.30;99.90
3564;DHT22;1796;52.388;13.096;2023-03-17T03:52:06;3.20;99.90
3564;DHT22;1796;52.388;13.096;2023-03-17T03:54:33;3.20;99.90
3564;DHT22;1796;52.388;13.096;2023-03-17T03:57:00;3.20;99.90
3564;DHT22;1796;52.388;13.096;2023-03-17T03:59:27;3.20;99.90
3564;DHT22;1796;52.388;13.096;2023-03-17T04:01:54;3.20;99.90
3564;DHT22;1796;52.388;13.096;2023-03-17T04:04:22;3.20;99.90
3564;DHT22;1796;52.388;13.096;2023-03-17T04:06:50;3.20;99.90
3564;DHT22;1796;52.388;13.096;2023-03-17T04:09:17;3.20;99.90
3564;DHT22;1796;52.388;13.096;2023-03-17T04:11:44;3.20;99.90
3564;DHT22;1796;52.388;13.096;2023-03-17T04:14:11;3.10;99.90
3564;DHT22;1796;52.388;13.096;2023-03-17T04:16:37;3.10;99.90
3564;DHT22;1796;52.388;13.096;2023-03-17T04:19:04;3.10;99.90
3564;DHT22;1796;52.388;13.096;2023-03-17T04:21:31;3.20;99.90
3564;DHT22;1796;52.388;13.096;2023-03-17T04:24:00;3.10;99.90
3564;DHT22;1796;52.388;13.096;2023-03-17T04:26:27;3.10;99.90
3564;DHT22;1796;52.388;13.096;2023-03-17T04:28:54;3.10;99.90
3564;DHT22;1796;52.388;13.096;2023-03-17T04:31:20;3.10;99.90
3564;DHT22;1796;52.388;13.096;2023-03-17T04:33:47;3.10;99.90
3564;DHT22;1796;52.388;13.096;2023-03-17T04:36:17;3.10;99.90
3564;DHT22;1796;52.388;13.096;2023-03-17T04:38:45;3.10;99.90
3564;DHT22;1796;52.388;13.096;2023-03-17T04:41:13;3.10;99.90
3564;DHT22;1796;52.388;13.096;2023-03-17T04:43:40;3.00;99.90
3564;DHT22;1796;52.388;13.096;2023-03-17T04:46:08;3.00;99.90
3564;DHT22;1796;52.388;13.096;2023-03-17T04:48:35;3.00;99.90
3564;DHT22;1796;52.388;13.096;2023-03-17T04:51:02;3.00;99.90
3564;DHT22;1796;52.388;13.096;2023-03-17T04:53:29;3.10;99.90
3564;DHT22;1796;52.388;13.096;2023-03-17T04:55:56;3.10;99.90
3564;DHT22;1796;52.388;13.096;2023-03-17T04:58:24;3.10;99.90
3564;DHT22;1796;52.388;13.096;2023-03-17T05:00:51;3.10;99.90
3564;DHT22;1796;52.388;13.096;2023-03-17T05:03:18;3.10;99.90
3564;DHT22;1796;52.388;13.096;2023-03-17T05:05:45;3.10;99.90
3564;DHT22;1796;52.388;13.096;2023-03-17T05:08:12;3.10;99.90
3564;DHT22;1796;52.388;13.096;2023-03-17T05:10:39;3.10;99.90
3564;DHT22;1796;52.388;13.096;2023-03-17T05:13:06;3.10;99.90
3564;DHT22;1796;52.388;13.096;2023-03-17T05:15:34;3.10;99.90
3564;DHT22;1796;52.388;13.096;2023-03-17T05:18:02;3.20;99.90
3564;DHT22;1796;52.388;13.096;2023-03-17T05:20:29;3.20;99.90
3564;DHT22;1796;52.388;13.096;2023-03-17T05:22:56;3.10;99.90
3564;DHT22;1796;52.388;13.096;2023-03-17T05:25:23;3.20;99.90
3564;DHT22;1796;52.388;13.096;2023-03-17T05:27:49;3.20;99.90
3564;DHT22;1796;52.388;13.096;2023-03-17T05:30:16;3.20;99.90
3564;DHT22;1796;52.388;13.096;2023-03-17T05:32:45;3.20;99.90
3564;DHT22;1796;52.388;13.096;2023-03-17T05:35:12;3.20;99.90
3564;DHT22;1796;52.388;13.096;2023-03-17T05:37:39;3.20;99.90
3564;DHT22;1796;52.388;13.096;2023-03-17T05:40:07;3.20;99.90
3564;DHT22;1796;52.388;13.096;2023-03-17T05:42:34;3.30;99.90
3564;DHT22;1796;52.388;13.096;2023-03-17T05:45:01;3.30;99.90
3564;DHT22;1796;52.388;13.096;2023-03-17T05:47:30;3.40;99.90
3564;DHT22;1796;52.388;13.096;2023-03-17T05:49:59;3.30;99.90
3564;DHT22;1796;52.388;13.096;2023-03-17T05:52:27;3.30;99.90
3564;DHT22;1796;52.388;13.096;2023-03-17T05:54:54;3.40;99.90
3564;DHT22;1796;52.388;13.096;2023-03-17T05:57:21;3.40;99.90
3564;DHT22;1796;52.388;13.096;2023-03-17T05:59:51;3.40;99.90
3564;DHT22;1796;52.388;13.096;2023-03-17T06:02:19;3.40;99.90
3564;DHT22;1796;52.388;13.096;2023-03-17T06:04:46;3.40;99.90
3564;DHT22;1796;52.388;13.096;2023-03-17T06:07:14;3.50;99.90
3564;DHT22;1796;52.388;13.096;2023-03-17T06:09:42;3.50;99.90
3564;DHT22;1796;52.388;13.096;2023-03-17T06:12:09;3.50;99.90
3564;DHT22;1796;52.388;13.096;2023-03-17T06:14:36;3.50;99.90
3564;DHT22;1796;52.388;13.096;2023-03-17T06:17:02;3.50;99.90
3564;DHT22;1796;52.388;13.096;2023-03-17T06:19:30;3.50;99.90
3564;DHT22;1796;52.388;13.096;2023-03-17T06:21:56;3.50;99.90
3564;DHT22;1796;52.388;13.096;2023-03-17T06:24:25;3.60;99.90
3564;DHT22;1796;52.388;13.096;2023-03-17T06:26:52;3.70;99.90
3564;DHT22;1796;52.388;13.096;2023-03-17T06:29:19;3.70;99.90
3564;DHT22;1796;52.388;13.096;2023-03-17T06:31:47;3.80;99.90
3564;DHT22;1796;52.388;13.096;2023-03-17T06:34:15;3.80;99.90
3564;DHT22;1796;52.388;13.096;2023-03-17T06:36:42;4.00;99.90
3564;DHT22;1796;52.388;13.096;2023-03-17T06:39:10;4.10;99.90
3564;DHT22;1796;52.388;13.096;2023-03-17T06:41:38;4.20;99.90
3564;DHT22;1796;52.388;13.096;2023-03-17T06:44:05;4.20;99.90
3564;DHT22;1796;52.388;13.096;2023-03-17T06:46:33;4.30;99.90
3564;DHT22;1796;52.388;13.096;2023-03-17T06:49:00;4.30;99.90
3564;DHT22;1796;52.388;13.096;2023-03-17T06:51:28;4.40;99.90
3564;DHT22;1796;52.388;13.096;2023-03-17T06:53:55;4.50;99.90
3564;DHT22;1796;52.388;13.096;2023-03-17T06:56:22;4.80;99.90
3564;DHT22;1796;52.388;13.096;2023-03-17T06:58:50;4.70;99.90
3564;DHT22;1796;52.388;13.096;2023-03-17T07:01:17;4.70;99.90
3564;DHT22;1796;52.388;13.096;2023-03-17T07:03:44;4.80;99.90
3564;DHT22;1796;52.388;13.096;2023-03-17T07:06:11;4.80;99.90
3564;DHT22;1796;52.388;13.096;2023-03-17T07:08:38;4.80;99.90
3564;DHT22;1796;52.388;13.096;2023-03-17T07:11:06;4.90;99.90
3564;DHT22;1796;52.388;13.096;2023-03-17T07:13:32;5.20;99.90
3564;DHT22;1796;52.388;13.096;2023-03-17T07:16:03;5.40;99.90
3564;DHT22;1796;52.388;13.096;2023-03-17T07:18:30;5.70;99.90
3564;DHT22;1796;52.388;13.096;2023-03-17T07:20:58;5.90;99.90
3564;DHT22;1796;52.388;13.096;2023-03-17T07:23:27;6.00;99.90
3564;DHT22;1796;52.388;13.096;2023-03-17T07:25:55;5.90;99.90
3564;DHT22;1796;52.388;13.096;2023-03-17T07:28:23;6.10;99.90
3564;DHT22;1796;52.388;13.096;2023-03-17T07:30:50;6.40;99.90
3564;DHT22;1796;52.388;13.096;2023-03-17T07:33:19;6.20;99.90
3564;DHT22;1796;52.388;13.096;2023-03-17T07:35:46;6.20;99.90
3564;DHT22;1796;52.388;13.096;2023-03-17T07:38:15;6.20;99.90
3564;DHT22;1796;52.388;13.096;2023-03-17T07:40:43;6.10;99.90
3564;DHT22;1796;52.388;13.096;2023-03-17T07:43:11;6.00;99.90
3564;DHT22;1796;52.388;13.096;2023-03-17T07:45:38;6.00;99.90
3564;DHT22;1796;52.388;13.096;2023-03-17T07:48:06;6.20;99.90
3564;DHT22;1796;52.388;13.096;2023-03-17T07:50:34;6.30;99.90
3564;DHT22;1796;52.388;13.096;2023-03-17T07:53:02;6.50;99.90
3564;DHT22;1796;52.388;13.096;2023-03-17T07:55:29;6.90;99.90
3564;DHT22;1796;52.388;13.096;2023-03-17T07:57:57;7.00;99.90
3564;DHT22;1796;52.388;13.096;2023-03-17T08:00:24;7.00;99.90
3564;DHT22;1796;52.388;13.096;2023-03-17T08:02:52;7.10;99.90
3564;DHT22;1796;52.388;13.096;2023-03-17T08:05:19;7.00;99.90
3564;DHT22;1796;52.388;13.096;2023-03-17T08:07:47;7.00;99.90
3564;DHT22;1796;52.388;13.096;2023-03-17T08:10:15;7.10;99.90
3564;DHT22;1796;52.388;13.096;2023-03-17T08:12:42;7.20;99.90
3564;DHT22;1796;52.388;13.096;2023-03-17T08:15:10;7.30;99.90
3564;DHT22;1796;52.388;13.096;2023-03-17T08:17:38;7.30;99.90
3564;DHT22;1796;52.388;13.096;2023-03-17T08:20:06;7.40;99.90
3564;DHT22;1796;52.388;13.096;2023-03-17T08:22:34;7.60;99.90
3564;DHT22;1796;52.388;13.096;2023-03-17T08:25:02;7.80;99.90
3564;DHT22;1796;52.388;13.096;2023-03-17T08:27:29;7.90;99.90
3564;DHT22;1796;52.388;13.096;2023-03-17T08:29:56;8.00;99.90
3564;DHT22;1796;52.388;13.096;2023-03-17T08:32:23;7.90;99.90
3564;DHT22;1796;52.388;13.096;2023-03-17T08:34:52;8.10;99.90
3564;DHT22;1796;52.388;13.096;2023-03-17T08:37:19;8.10;99.90
3564;DHT22;1796;52.388;13.096;2023-03-17T08:39:47;8.10;99.90
3564;DHT22;1796;52.388;13.096;2023-03-17T08:42:16;8.10;99.90
3564;DHT22;1796;52.388;13.096;2023-03-17T08:44:43;8.00;99.90
3564;DHT22;1796;52.388;13.096;2023-03-17T08:47:10;8.20;99.90
3564;DHT22;1796;52.388;13.096;2023-03-17T08:49:36;8.30;99.90
3564;DHT22;1796;52.388;13.096;2023-03-17T08:52:04;8.40;99.90
3564;DHT22;1796;52.388;13.096;2023-03-17T08:54:31;8.60;99.90
3564;DHT22;1796;52.388;13.096;2023-03-17T08:56:59;8.70;99.90
3564;DHT22;1796;52.388;13.096;2023-03-17T08:59:27;8.70;99.90
3564;DHT22;1796;52.388;13.096;2023-03-17T09:01:54;8.90;99.90
3564;DHT22;1796;52.388;13.096;2023-03-17T09:04:21;8.90;99.90
3564;DHT22;1796;52.388;13.096;2023-03-17T09:06:48;9.10;99.90
3564;DHT22;1796;52.388;13.096;2023-03-17T09:09:16;9.20;99.90
3564;DHT22;1796;52.388;13.096;2023-03-17T09:11:43;9.30;99.90
3564;DHT22;1796;52.388;13.096;2023-03-17T09:14:10;9.40;99.90
3564;DHT22;1796;52.388;13.096;2023-03-17T09:16:38;9.60;99.90
3564;DHT22;1796;52.388;13.096;2023-03-17T09:19:05;9.70;99.90
3564;DHT22;1796;52.388;13.096;2023-03-17T09:21:34;9.80;99.90
3564;DHT22;1796;52.388;13.096;2023-03-17T09:24:01;10.00;99.90
3564;DHT22;1796;52.388;13.096;2023-03-17T09:26:28;10.20;99.90
3564;DHT22;1796;52.388;13.096;2023-03-17T09:28:55;10.30;99.90
3564;DHT22;1796;52.388;13.096;2023-03-17T09:31:23;10.50;99.90
3564;DHT22;1796;52.388;13.096;2023-03-17T09:33:51;10.40;99.90
3564;DHT22;1796;52.388;13.096;2023-03-17T09:36:18;10.40;99.90
3564;DHT22;1796;52.388;13.096;2023-03-17T09:38:45;10.40;99.90
3564;DHT22;1796;52.388;13.096;2023-03-17T09:41:40;10.40;99.90
3564;DHT22;1796;52.388;13.096;2023-03-17T09:44:17;10.50;99.90
3564;DHT22;1796;52.388;13.096;2023-03-17T09:46:56;10.60;99.90
3564;DHT22;1796;52.388;13.096;2023-03-17T09:49:36;10.60;99.90
3564;DHT22;1796;52.388;13.096;2023-03-17T09:52:04;10.80;99.90
3564;DHT22;1796;52.388;13.096;2023-03-17T09:54:33;10.70;99.90
3564;DHT22;1796;52.388;13.096;2023-03-17T09:57:05;10.80;99.90
3564;DHT22;1796;52.388;13.096;2023-03-17T09:59:38;11.00;99.90
3564;DHT22;1796;52.388;13.096;2023-03-17T10:02:16;11.20;99.90
3564;DHT22;1796;52.388;13.096;2023-03-17T10:04:45;11.20;99.90
3564;DHT22;1796;52.388;13.096;2023-03-17T10:07:16;11.30;99.90
3564;DHT22;1796;52.388;13.096;2023-03-17T10:09:49;11.30;99.90
3564;DHT22;1796;52.388;13.096;2023-03-17T10:12:24;11.60;99.90
3564;DHT22;1796;52.388;13.096;2023-03-17T10:14:57;11.80;99.90
3564;DHT22;1796;52.388;13.096;2023-03-17T10:17:29;11.70;99.90
3564;DHT22;1796;52.388;13.096;2023-03-17T10:20:01;11.60;99.90
3564;DHT22;1796;52.388;13.096;2023-03-17T10:22:36;11.80;99.90
3564;DHT22;1796;52.388;13.096;2023-03-17T10:25:09;11.90;99.90
3564;DHT22;1796;52.388;13.096;2023-03-17T10:27:37;12.10;99.90
3564;DHT22;1796;52.388;13.096;2023-03-17T10:30:13;12.30;99.90
3564;DHT22;1796;52.388;13.096;2023-03-17T10:32:41;12.40;99.90
3564;DHT22;1796;52.388;13.096;2023-03-17T10:35:10;12.40;99.90
3564;DHT22;1796;52.388;13.096;2023-03-17T10:37:38;12.30;99.90
3564;DHT22;1796;52.388;13.096;2023-03-17T10:40:17;12.50;99.90
3564;DHT22;1796;52.388;13.096;2023-03-17T10:42:46;12.50;99.90
3564;DHT22;1796;52.388;13.096;2023-03-17T10:45:15;12.50;99.90
3564;DHT22;1796;52.388;13.096;2023-03-17T10:47:45;12.70;99.90
3564;DHT22;1796;52.388;13.096;2023-03-17T10:50:20;12.70;99.90
3564;DHT22;1796;52.388;13.096;2023-03-17T10:52:53;12.70;99.90
3564;DHT22;1796;52.388;13.096;2023-03-17T10:55:26;12.80;99.90
3564;DHT22;1796;52.388;13.096;2023-03-17T10:58:00;13.00;99.90
3564;DHT22;1796;52.388;13.096;2023-03-17T11:00:29;13.00;99.90
3564;DHT22;1796;52.388;13.096;2023-03-17T11:02:58;12.80;99.90
3564;DHT22;1796;52.388;13.096;2023-03-17T11:05:28;13.00;99.90
3564;DHT22;1796;52.388;13.096;2023-03-17T11:08:07;12.90;99.90
3564;DHT22;1796;52.388;13.096;2023-03-17T11:10:36;13.00;99.90
3564;DHT22;1796;52.388;13.096;2023-03-17T11:13:04;13.00;99.90
3564;DHT22;1796;52.388;13.096;2023-03-17T11:15:33;13.10;99.90
3564;DHT22;1796;52.388;13.096;2023-03-17T11:18:02;12.90;99.90
3564;DHT22;1796;52.388;13.096;2023-03-17T11:20:41;12.90;99.90
3564;DHT22;1796;52.388;13.096;2023-03-17T11:23:20;13.10;99.90
3564;DHT22;1796;52.388;13.096;2023-03-17T11:25:53;13.10;99.90
3564;DHT22;1796;52.388;13.096;2023-03-17T11:28:24;13.10;99.90
3564;DHT22;1796;52.388;13.096;2023-03-17T11:30:58;13.10;99.90
3564;DHT22;1796;52.388;13.096;2023-03-17T11:33:35;13.10;99.90
3564;DHT22;1796;52.388;13.096;2023-03-17T11:36:15;13.30;99.90
3564;DHT22;1796;52.388;13.096;2023-03-17T11:38:54;13.40;99.90
3564;DHT22;1796;52.388;13.096;2023-03-17T11:41:39;13.40;99.90
3564;DHT22;1796;52.388;13.096;2023-03-17T11:44:47;13.40;99.90
3564;DHT22;1796;52.388;13.096;2023-03-17T11:47:31;13.60;99.90
3564;DHT22;1796;52.388;13.096;2023-03-17T11:50:07;13.70;99.90
3564;DHT22;1796;52.388;13.096;2023-03-17T11:52:46;13.90;99.90
3564;DHT22;1796;52.388;13.096;2023-03-17T11:55:22;14.00;99.90
3564;DHT22;1796;52.388;13.096;2023-03-17T11:57:54;14.10;99.90
3564;DHT22;1796;52.388;13.096;2023-03-17T12:00:26;14.30;99.90
3564;DHT22;1796;52.388;13.096;2023-03-17T12:02:59;14.20;99.90
3564;DHT22;1796;52.388;13.096;2023-03-17T12:05:28;14.20;99.90
3564;DHT22;1796;52.388;13.096;2023-03-17T12:07:59;14.10;99.90
3564;DHT22;1796;52.388;13.096;2023-03-17T12:10:31;14.10;99.90
3564;DHT22;1796;52.388;13.096;2023-03-17T12:13:04;14.10;99.90
3564;DHT22;1796;52.388;13.096;2023-03-17T12:15:34;14.20;99.90
3564;DHT22;1796;52.388;13.096;2023-03-17T12:18:09;14.20;99.90
3564;DHT22;1796;52.388;13.096;2023-03-17T12:20:45;14.20;99.90
3564;DHT22;1796;52.388;13.096;2023-03-17T12:23:22;14.30;99.90
3564;DHT22;1796;52.388;13.096;2023-03-17T12:25:58;14.50;99.90
3564;DHT22;1796;52.388;13.096;2023-03-17T12:28:27;14.50;99.90
3564;DHT22;1796;52.388;13.096;2023-03-17T12:31:02;14.60;99.90
3564;DHT22;1796;52.388;13.096;2023-03-17T12:33:37;14.60;99.90
3564;DHT22;1796;52.388;13.096;2023-03-17T12:36:11;14.70;99.90
3564;DHT22;1796;52.388;13.096;2023-03-17T12:38:44;14.60;99.90
3564;DHT22;1796;52.388;13.096;2023-03-17T12:41:26;14.70;99.90
3564;DHT22;1796;52.388;13.096;2023-03-17T12:44:04;14.70;99.90
3564;DHT22;1796;52.388;13.096;2023-03-17T12:46:58;14.90;99.90
3564;DHT22;1796;52.388;13.096;2023-03-17T12:49:50;15.00;99.90
3564;DHT22;1796;52.388;13.096;2023-03-17T12:52:39;15.00;99.90
3564;DHT22;1796;52.388;13.096;2023-03-17T12:55:12;15.30;99.90
3564;DHT22;1796;52.388;13.096;2023-03-17T12:57:41;15.50;99.90
3564;DHT22;1796;52.388;13.096;2023-03-17T13:00:19;15.50;99.90
3564;DHT22;1796;52.388;13.096;2023-03-17T13:02:50;15.60;99.90
3564;DHT22;1796;52.388;13.096;2023-03-17T13:05:28;15.50;99.90
3564;DHT22;1796;52.388;13.096;2023-03-17T13:08:00;15.60;99.90
3564;DHT22;1796;52.388;13.096;2023-03-17T13:10:39;15.40;99.90
3564;DHT22;1796;52.388;13.096;2023-03-17T13:13:12;15.20;99.90
3564;DHT22;1796;52.388;13.096;2023-03-17T13:15:55;15.20;99.90
3564;DHT22;1796;52.388;13.096;2023-03-17T13:21:23;15.30;99.90
3564;DHT22;1796;52.388;13.096;2023-03-17T13:23:56;15.40;99.90
3564;DHT22;1796;52.388;13.096;2023-03-17T13:26:58;15.40;99.90
3564;DHT22;1796;52.388;13.096;2023-03-17T13:29:43;15.30;99.90
3564;DHT22;1796;52.388;13.096;2023-03-17T13:32:32;15.40;99.90
3564;DHT22;1796;52.388;13.096;2023-03-17T13:35:19;15.50;99.90
3564;DHT22;1796;52.388;13.096;2023-03-17T13:41:05;15.30;99.90
3564;DHT22;1796;52.388;13.096;2023-03-17T13:44:01;15.20;99.90
3564;DHT22;1796;52.388;13.096;2023-03-17T13:46:38;15.20;99.90
3564;DHT22;1796;52.388;13.096;2023-03-17T13:49:19;15.30;99.90
3564;DHT22;1796;52.388;13.096;2023-03-17T13:51:50;15.30;99.90
3564;DHT22;1796;52.388;13.096;2023-03-17T13:54:20;15.40;99.90
3564;DHT22;1796;52.388;13.096;2023-03-17T13:56:55;15.20;99.90
3564;DHT22;1796;52.388;13.096;2023-03-17T13:59:32;15.40;99.90
3564;DHT22;1796;52.388;13.096;2023-03-17T14:02:05;15.30;99.90
3564;DHT22;1796;52.388;13.096;2023-03-17T14:04:44;15.20;99.90
3564;DHT22;1796;52.388;13.096;2023-03-17T14:07:17;15.30;99.90
3564;DHT22;1796;52.388;13.096;2023-03-17T14:09:45;15.20;99.90
3564;DHT22;1796;52.388;13.096;2023-03-17T14:12:19;15.20;99.90
3564;DHT22;1796;52.388;13.096;2023-03-17T14:14:51;15.00;99.90
3564;DHT22;1796;52.388;13.096;2023-03-17T14:17:24;15.00;99.90
3564;DHT22;1796;52.388;13.096;2023-03-17T14:20:03;15.00;99.90
3564;DHT22;1796;52.388;13.096;2023-03-17T14:22:38;15.10;99.90
3564;DHT22;1796;52.388;13.096;2023-03-17T14:25:13;15.00;99.90
3564;DHT22;1796;52.388;13.096;2023-03-17T14:27:41;14.70;99.90
3564;DHT22;1796;52.388;13.096;2023-03-17T14:30:17;14.70;99.90
3564;DHT22;1796;52.388;13.096;2023-03-17T14:32:58;14.70;99.90
3564;DHT22;1796;52.388;13.096;2023-03-17T14:35:29;14.70;99.90
3564;DHT22;1796;52.388;13.096;2023-03-17T14:37:56;14.60;99.90
3564;DHT22;1796;52.388;13.096;2023-03-17T14:40:25;14.50;99.90
3564;DHT22;1796;52.388;13.096;2023-03-17T14:42:52;14.60;99.90
3564;DHT22;1796;52.388;13.096;2023-03-17T14:45:26;14.60;99.90
3564;DHT22;1796;52.388;13.096;2023-03-17T14:47:54;14.70;99.90
3564;DHT22;1796;52.388;13.096;2023-03-17T14:50:24;14.70;99.90
3564;DHT22;1796;52.388;13.096;2023-03-17T14:52:52;14.60;99.90
3564;DHT22;1796;52.388;13.096;2023-03-17T14:55:19;14.40;99.90
3564;DHT22;1796;52.388;13.096;2023-03-17T14:57:50;14.40;99.90
3564;DHT22;1796;52.388;13.096;2023-03-17T15:00:31;14.40;99.90
3564;DHT22;1796;52.388;13.096;2023-03-17T15:03:00;14.50;99.90
3564;DHT22;1796;52.388;13.096;2023-03-17T15:05:36;14.60;99.90
3564;DHT22;1796;52.388;13.096;2023-03-17T15:11:22;14.50;99.90
3564;DHT22;1796;52.388;13.096;2023-03-17T15:13:53;14.50;99.90
3564;DHT22;1796;52.388;13.096;2023-03-17T15:16:24;14.50;99.90
3564;DHT22;1796;52.388;13.096;2023-03-17T15:19:04;14.40;99.90
3564;DHT22;1796;52.388;13.096;2023-03-17T15:21:33;14.40;99.90
3564;DHT22;1796;52.388;13.096;2023-03-17T15:24:16;14.40;99.90
3564;DHT22;1796;52.388;13.096;2023-03-17T15:26:45;14.30;99.90
3564;DHT22;1796;52.388;13.096;2023-03-17T15:29:12;14.40;99.90
3564;DHT22;1796;52.388;13.096;2023-03-17T15:31:40;14.30;99.90
3564;DHT22;1796;52.388;13.096;2023-03-17T15:34:09;14.20;99.90
3564;DHT22;1796;52.388;13.096;2023-03-17T15:36:37;14.10;99.90
3564;DHT22;1796;52.388;13.096;2023-03-17T15:39:04;14.10;99.90
3564;DHT22;1796;52.388;13.096;2023-03-17T15:41:31;14.10;99.90
3564;DHT22;1796;52.388;13.096;2023-03-17T15:43:57;14.10;99.90
3564;DHT22;1796;52.388;13.096;2023-03-17T15:46:26;14.00;99.90
3564;DHT22;1796;52.388;13.096;2023-03-17T15:48:56;13.90;99.90
3564;DHT22;1796;52.388;13.096;2023-03-17T15:51:23;13.90;99.90
3564;DHT22;1796;52.388;13.096;2023-03-17T15:53:50;13.90;99.90
3564;DHT22;1796;52.388;13.096;2023-03-17T15:56:19;13.90;99.90
3564;DHT22;1796;52.388;13.096;2023-03-17T15:58:47;13.80;99.90
3564;DHT22;1796;52.388;13.096;2023-03-17T16:01:15;13.80;99.90
3564;DHT22;1796;52.388;13.096;2023-03-17T16:03:43;13.70;99.90
3564;DHT22;1796;52.388;13.096;2023-03-17T16:06:16;13.70;99.90
3564;DHT22;1796;52.388;13.096;2023-03-17T16:08:43;13.70;99.90
3564;DHT22;1796;52.388;13.096;2023-03-17T16:11:15;13.60;99.90
3564;DHT22;1796;52.388;13.096;2023-03-17T16:13:44;13.60;99.90
3564;DHT22;1796;52.388;13.096;2023-03-17T16:16:17;13.50;99.90
3564;DHT22;1796;52.388;13.096;2023-03-17T16:18:47;13.40;99.90
3564;DHT22;1796;52.388;13.096;2023-03-17T16:21:16;13.40;99.90
3564;DHT22;1796;52.388;13.096;2023-03-17T16:23:43;13.30;99.90
3564;DHT22;1796;52.388;13.096;2023-03-17T16:26:11;13.30;99.90
3564;DHT22;1796;52.388;13.096;2023-03-17T16:28:38;13.20;99.90